Terminal Aerodrome Forecast
Issued by NWS

Current Version | Previous Version | Graphics & Text | Print | Product List | Glossary On
Versions: 1 2 3 4 5 6 7 8 9 10 11 12 13 14 15 16 17 18 19 20 21 22 23 24 25 26 27
000
FTUS41 KILN 251400 AAA
TAFLCK
TAF AMD
KLCK 251434Z 2515/2612 15005KT P6SM SCT035 OVC100
      TEMPO 2518/2520 09005KT 4SM -RA BR OVC025
     FM252000 08009KT 4SM -RA BR OVC025
      TEMPO 2522/2524 1SM -SNRA BR OVC012
     FM260000 04010G18KT 1SM -SN OVC009
      TEMPO 2600/2603 1/2SM SN
     FM260300 02013G21KT 2SM -SN OVC015
     FM260800 36013G21KT 3SM -SN OVC015=

USA.gov is the U.S. government's official web portal to all federal, state and local government web resources and services.